Time;durP1;ratioP1;P1;durP2;ratioP2;P2;SDS_P1;SDS_P2;PMS_P1;PMS_P2;Temp;Humidity;BMP_temperature;BMP_pressure;BME280_temperature;BME280_humidity;BME280_pressure;Samples;Min_cycle;Max_cycle;Signal;HPM_P1;HPM_P2
2023/06/06 00:02:45;;;;;;;3.90;2.58;;;19.30;90.30;;;;;;6331434;28;20595;-76
2023/06/06 00:05:49;;;;;;;4.18;2.60;;;19.20;90.50;;;;;;6331064;28;20048;-74
2023/06/06 00:08:52;;;;;;;3.95;2.42;;;19.20;90.60;;;;;;6324154;28;20051;-74
2023/06/06 00:11:56;;;;;;;;;;;19.20;90.80;;;;;;6323092;28;20079;-74
2023/06/06 00:14:59;;;;;;;3.90;2.28;;;19.20;91.00;;;;;;6326813;28;19920;-74
2023/06/06 00:18:02;;;;;;;4.22;2.30;;;19.20;90.80;;;;;;6338762;28;20043;-75
2023/06/06 00:21:05;;;;;;;4.22;2.38;;;19.20;90.60;;;;;;6351044;28;20062;-76
2023/06/06 00:24:07;;;;;;;5.70;2.70;;;19.20;90.80;;;;;;6352097;28;20044;-75
2023/06/06 00:27:09;;;;;;;4.22;2.33;;;19.10;90.80;;;;;;6326286;28;20048;-74
2023/06/06 00:30:12;;;;;;;4.10;2.00;;;19.10;90.80;;;;;;6313889;28;20051;-78
2023/06/06 00:33:14;;;;;;;3.33;2.10;;;19.20;90.60;;;;;;6307398;28;20048;-74
2023/06/06 00:36:17;;;;;;;4.15;2.20;;;19.10;90.50;;;;;;6326344;28;20512;-76
2023/06/06 00:39:19;;;;;;;3.53;2.15;;;19.10;90.50;;;;;;6324476;28;20750;-76
2023/06/06 00:42:21;;;;;;;4.22;2.22;;;19.10;90.50;;;;;;6326210;28;20197;-75
2023/06/06 00:45:23;;;;;;;4.40;2.50;;;19.00;90.50;;;;;;6332058;28;20489;-75
2023/06/06 00:48:25;;;;;;;4.03;2.42;;;18.90;90.60;;;;;;6351406;28;20507;-75
2023/06/06 00:51:29;;;;;;;5.10;2.53;;;18.80;90.70;;;;;;6328464;28;20052;-75
2023/06/06 00:54:33;;;;;;;4.13;2.70;;;18.60;90.90;;;;;;6326086;28;20089;-73
2023/06/06 00:57:35;;;;;;;4.13;2.53;;;18.60;91.00;;;;;;6324211;28;20059;-76
2023/06/06 01:00:40;;;;;;;3.87;2.23;;;18.50;91.20;;;;;;6340919;28;20489;-74
2023/06/06 01:03:43;;;;;;;3.97;2.50;;;18.40;91.20;;;;;;6352177;28;20302;-74
2023/06/06 01:06:47;;;;;;;;;;;18.40;91.50;;;;;;6352594;28;20046;-75
2023/06/06 01:09:49;;;;;;;4.50;2.38;;;18.40;91.40;;;;;;6321919;28;20484;-76
2023/06/06 01:12:58;;;;;;;4.13;2.40;;;18.30;91.40;;;;;;6333885;28;20051;-75
2023/06/06 01:16:06;;;;;;;4.10;2.45;;;18.20;91.50;;;;;;6348170;28;20074;-75
2023/06/06 01:19:12;;;;;;;3.40;2.10;;;18.30;91.60;;;;;;6344239;28;20104;-73
2023/06/06 01:22:17;;;;;;;6.90;2.75;;;18.30;91.30;;;;;;6316198;28;20045;-74
2023/06/06 01:25:21;;;;;;;4.05;2.22;;;18.20;91.50;;;;;;6317911;28;20127;-75
2023/06/06 01:28:23;;;;;;;3.97;2.30;;;18.10;91.80;;;;;;6325343;28;20174;-75
2023/06/06 01:31:33;;;;;;;4.07;2.30;;;18.20;91.70;;;;;;6343903;28;20400;-74
2023/06/06 01:34:41;;;;;;;4.40;2.33;;;18.10;91.90;;;;;;6334267;28;20048;-75
2023/06/06 01:37:50;;;;;;;4.03;2.33;;;18.10;91.90;;;;;;6324824;28;20044;-75
2023/06/06 01:40:56;;;;;;;4.35;2.33;;;18.20;91.70;;;;;;6339085;28;20161;-75
2023/06/06 01:43:59;;;;;;;4.43;2.53;;;18.20;91.70;;;;;;6356785;28;20043;-74
2023/06/06 01:47:02;;;;;;;4.05;2.33;;;18.20;91.70;;;;;;6330954;28;20040;-75
2023/06/06 01:50:07;;;;;;;4.00;2.20;;;18.20;91.70;;;;;;6317250;28;20191;-75
2023/06/06 01:53:10;;;;;;;3.45;2.20;;;18.10;91.40;;;;;;6351281;27;20130;-75
2023/06/06 01:56:13;;;;;;;5.18;2.25;;;18.00;91.70;;;;;;6351223;28;20052;-75
2023/06/06 01:59:15;;;;;;;4.72;2.15;;;18.10;91.90;;;;;;6332097;28;20048;-77
2023/06/06 02:02:18;;;;;;;4.00;2.30;;;18.00;91.90;;;;;;6330590;28;20044;-75
2023/06/06 02:05:20;;;;;;;4.05;2.20;;;18.00;91.70;;;;;;6324169;28;20044;-76
2023/06/06 02:08:23;;;;;;;4.13;2.10;;;17.80;91.80;;;;;;6323380;28;20076;-75
2023/06/06 02:11:26;;;;;;;3.80;2.10;;;17.70;92.10;;;;;;6326782;28;20417;-75
2023/06/06 02:14:28;;;;;;;4.13;2.28;;;17.60;92.00;;;;;;6324298;28;20097;-77
2023/06/06 02:17:30;;;;;;;3.67;2.30;;;17.60;92.10;;;;;;6324468;28;20040;-74
2023/06/06 02:20:32;;;;;;;3.90;2.20;;;17.60;91.90;;;;;;6323701;28;20040;-74
2023/06/06 02:23:36;;;;;;;3.97;2.10;;;17.60;92.00;;;;;;6324270;28;20048;-76
2023/06/06 02:26:41;;;;;;;3.72;2.20;;;17.60;92.10;;;;;;6326296;28;20044;-76
2023/06/06 02:29:43;;;;;;;6.00;2.42;;;17.50;92.30;;;;;;6333228;28;20083;-76
2023/06/06 02:32:45;;;;;;;4.07;2.20;;;17.50;92.50;;;;;;6340363;28;20052;-75
2023/06/06 02:35:47;;;;;;;4.93;2.13;;;17.40;92.70;;;;;;6326362;28;20043;-76
2023/06/06 02:38:50;;;;;;;3.95;2.00;;;17.40;92.80;;;;;;6325527;28;20051;-75
2023/06/06 02:41:52;;;;;;;3.45;2.10;;;17.40;92.50;;;;;;6326548;28;20047;-74
2023/06/06 02:44:54;;;;;;;3.90;2.10;;;17.30;92.50;;;;;;6327562;28;20044;-75
2023/06/06 02:47:56;;;;;;;3.63;2.30;;;17.30;92.60;;;;;;6325496;28;20056;-76
2023/06/06 02:50:58;;;;;;;3.85;2.10;;;17.10;92.70;;;;;;6336110;28;20056;-74
2023/06/06 02:54:02;;;;;;;3.53;2.03;;;17.10;92.70;;;;;;6338938;28;20096;-75
2023/06/06 02:57:05;;;;;;;3.70;2.15;;;17.20;92.50;;;;;;6339827;28;20055;-73
2023/06/06 03:00:08;;;;;;;3.83;2.10;;;17.10;92.40;;;;;;6332659;28;20044;-75
2023/06/06 03:03:10;;;;;;;3.78;2.20;;;17.10;92.40;;;;;;6363360;28;20040;-74
2023/06/06 03:06:12;;;;;;;4.20;2.03;;;17.00;92.60;;;;;;6351894;28;20057;-74
2023/06/06 03:09:15;;;;;;;4.07;2.15;;;17.00;92.50;;;;;;6332253;28;20051;-77
2023/06/06 03:12:17;;;;;;;4.45;2.33;;;16.90;92.60;;;;;;6322963;28;20063;-75
2023/06/06 03:15:19;;;;;;;3.78;2.15;;;17.00;92.60;;;;;;6323391;28;20512;-76
2023/06/06 03:18:21;;;;;;;3.95;2.13;;;17.00;92.50;;;;;;6333886;28;20052;-76
2023/06/06 03:21:24;;;;;;;4.20;2.22;;;16.90;92.50;;;;;;6342922;28;20044;-74
2023/06/06 03:24:28;;;;;;;4.90;2.25;;;16.90;92.50;;;;;;6329097;28;20052;-75
2023/06/06 03:27:30;;;;;;;4.32;2.30;;;16.80;92.50;;;;;;6344159;28;20048;-77
2023/06/06 03:30:32;;;;;;;4.10;2.22;;;16.80;92.60;;;;;;6343100;28;20050;-75
2023/06/06 03:33:35;;;;;;;4.28;2.20;;;16.80;92.50;;;;;;6363067;28;20059;-74
2023/06/06 03:36:37;;;;;;;3.95;2.20;;;16.70;92.60;;;;;;6355991;28;20067;-75
2023/06/06 03:39:40;;;;;;;4.28;2.28;;;16.70;92.40;;;;;;6333354;28;20048;-75
2023/06/06 03:42:42;;;;;;;3.60;2.17;;;16.60;92.50;;;;;;6325193;28;20044;-75
2023/06/06 03:45:46;;;;;;;5.50;2.58;;;16.60;92.70;;;;;;6328743;28;20046;-74
2023/06/06 03:48:47;;;;;;;5.30;2.30;;;16.50;92.80;;;;;;6330906;28;20115;-74
2023/06/06 03:51:49;;;;;;;3.60;2.30;;;16.30;92.80;;;;;;6341084;28;20044;-74
2023/06/06 03:54:53;;;;;;;3.72;2.05;;;16.30;93.10;;;;;;6329115;28;20148;-75
2023/06/06 03:57:55;;;;;;;4.30;2.22;;;16.30;93.20;;;;;;6326753;28;20044;-75
2023/06/06 04:00:58;;;;;;;4.45;2.35;;;16.30;93.40;;;;;;6337759;28;20050;-74
2023/06/06 04:03:59;;;;;;;4.22;2.30;;;16.40;93.40;;;;;;6327048;28;20048;-74
2023/06/06 04:07:03;;;;;;;4.90;2.28;;;16.30;93.20;;;;;;6325393;28;20048;-75
2023/06/06 04:10:07;;;;;;;6.20;2.47;;;16.30;93.50;;;;;;6323523;28;20058;-79
2023/06/06 04:13:09;;;;;;;3.70;2.35;;;16.20;94.10;;;;;;6315932;28;20410;-78
2023/06/06 04:16:11;;;;;;;5.03;2.30;;;16.20;93.90;;;;;;6322720;28;20044;-76
2023/06/06 04:19:13;;;;;;;4.10;2.30;;;16.30;93.90;;;;;;6325990;28;20048;-75
2023/06/06 04:22:15;;;;;;;5.93;2.45;;;16.30;94.30;;;;;;6318113;28;20406;-76
2023/06/06 04:25:18;;;;;;;4.63;2.60;;;16.40;94.40;;;;;;6324799;28;20117;-74
2023/06/06 04:28:20;;;;;;;4.72;3.00;;;16.40;94.90;;;;;;6319738;28;20044;-76
2023/06/06 04:31:24;;;;;;;5.65;2.53;;;16.40;94.80;;;;;;6348995;28;20058;-76
2023/06/06 04:34:30;;;;;;;4.65;3.10;;;16.40;94.80;;;;;;6323856;28;20047;-79
2023/06/06 04:37:32;;;;;;;5.18;3.20;;;16.40;94.80;;;;;;6327864;28;20052;-77
2023/06/06 04:40:35;;;;;;;5.63;3.03;;;16.40;95.40;;;;;;6335530;28;20054;-78
2023/06/06 04:43:38;;;;;;;4.50;3.15;;;16.40;95.90;;;;;;6323952;28;20055;-77
2023/06/06 04:46:41;;;;;;;5.47;3.57;;;16.40;96.30;;;;;;6322322;28;20131;-78
2023/06/06 04:49:43;;;;;;;5.35;3.17;;;16.40;96.50;;;;;;6324290;28;20051;-78
2023/06/06 04:52:45;;;;;;;4.95;3.17;;;16.40;96.60;;;;;;6350489;28;20048;-77
2023/06/06 04:55:49;;;;;;;5.40;3.60;;;16.40;96.20;;;;;;6320578;28;20040;-77
2023/06/06 04:58:52;;;;;;;5.75;3.28;;;16.40;96.70;;;;;;6328247;28;20059;-78
2023/06/06 05:01:55;;;;;;;5.40;3.28;;;16.40;96.50;;;;;;6324088;28;20481;-78
2023/06/06 05:04:59;;;;;;;6.55;3.70;;;16.40;96.60;;;;;;6331226;28;20127;-78
2023/06/06 05:08:01;;;;;;;6.03;4.25;;;16.40;96.70;;;;;;6324665;28;20044;-75
2023/06/06 05:11:04;;;;;;;6.82;3.90;;;16.40;96.90;;;;;;6316558;28;20052;-75
2023/06/06 05:14:06;;;;;;;5.80;3.90;;;16.30;97.00;;;;;;6316950;28;20051;-76
2023/06/06 05:17:09;;;;;;;6.20;3.92;;;16.30;97.30;;;;;;6326803;28;20041;-79
2023/06/06 05:20:13;;;;;;;6.68;4.15;;;16.40;97.30;;;;;;6300659;28;20094;-79
2023/06/06 05:23:15;;;;;;;6.18;4.68;;;16.30;97.50;;;;;;6317333;28;20405;-76
2023/06/06 05:26:18;;;;;;;8.15;4.40;;;16.30;97.60;;;;;;6304415;28;20052;-76
2023/06/06 05:29:20;;;;;;;5.63;3.80;;;16.30;98.00;;;;;;6315969;28;20508;-77
2023/06/06 05:32:22;;;;;;;7.88;4.63;;;16.40;98.10;;;;;;6303623;28;20052;-76
2023/06/06 05:35:25;;;;;;;6.50;4.60;;;16.40;98.20;;;;;;6299941;28;20058;-74
2023/06/06 05:38:27;;;;;;;6.55;4.32;;;16.40;98.10;;;;;;6303145;28;20053;-75
2023/06/06 05:41:31;;;;;;;9.48;5.00;;;16.50;98.20;;;;;;6336813;28;20041;-76
2023/06/06 05:44:32;;;;;;;;;;;16.60;98.20;;;;;;6324502;28;20123;-74
2023/06/06 05:47:34;;;;;;;7.90;4.68;;;16.60;98.20;;;;;;6323920;28;20292;-74
2023/06/06 05:50:36;;;;;;;9.40;5.45;;;16.70;98.20;;;;;;6333745;28;20129;-72
2023/06/06 05:53:44;;;;;;;7.32;5.07;;;16.80;98.10;;;;;;6324776;28;20048;-75
2023/06/06 05:56:47;;;;;;;10.32;5.72;;;16.80;98.10;;;;;;6321000;28;20120;-75
2023/06/06 05:59:49;;;;;;;9.10;5.45;;;16.80;98.10;;;;;;6320928;28;20378;-76
2023/06/06 06:02:53;;;;;;;9.70;5.35;;;16.90;98.00;;;;;;6324869;28;20052;-76
2023/06/06 06:06:04;;;;;;;8.02;4.85;;;17.00;97.70;;;;;;6334382;28;20067;-75
2023/06/06 06:09:06;;;;;;;9.50;5.22;;;17.10;97.20;;;;;;6316353;28;20127;-76
2023/06/06 06:12:10;;;;;;;9.60;5.45;;;17.10;96.80;;;;;;6325832;28;20075;-74
2023/06/06 06:15:12;;;;;;;10.27;5.13;;;16.80;97.60;;;;;;6315882;28;20076;-76
2023/06/06 06:18:15;;;;;;;10.77;5.63;;;16.80;97.80;;;;;;6319842;28;20043;-76
2023/06/06 06:21:19;;;;;;;11.73;5.57;;;16.70;98.10;;;;;;6328706;28;20071;-78
2023/06/06 06:24:21;;;;;;;7.45;5.13;;;17.00;97.70;;;;;;6319546;28;20306;-73
2023/06/06 06:27:24;;;;;;;9.88;4.68;;;17.40;97.50;;;;;;6322725;28;20044;-73
2023/06/06 06:30:27;;;;;;;7.90;5.20;;;17.70;96.70;;;;;;6322386;28;20051;-75
2023/06/06 06:33:29;;;;;;;9.32;5.45;;;17.80;96.10;;;;;;6318794;28;20043;-73
2023/06/06 06:36:31;;;;;;;13.00;5.07;;;17.90;96.00;;;;;;6307753;28;20046;-75
2023/06/06 06:39:33;;;;;;;8.65;5.00;;;18.10;95.40;;;;;;6309058;28;20383;-77
2023/06/06 06:42:39;;;;;;;8.75;4.75;;;18.10;95.20;;;;;;6310954;28;20040;-76
2023/06/06 06:45:41;;;;;;;6.30;4.50;;;18.10;95.10;;;;;;6309784;28;20119;-77
2023/06/06 06:48:45;;;;;;;7.82;4.00;;;18.20;95.10;;;;;;6297396;28;20056;-77
2023/06/06 06:51:48;;;;;;;6.90;4.30;;;18.30;94.60;;;;;;6348184;28;20125;-77
2023/06/06 06:54:53;;;;;;;8.50;3.83;;;18.40;94.00;;;;;;6312794;28;20040;-77
2023/06/06 06:57:58;;;;;;;6.43;3.70;;;18.50;94.10;;;;;;6308435;28;20307;-77
2023/06/06 07:01:01;;;;;;;5.05;3.22;;;18.40;94.00;;;;;;6316404;28;20075;-79
2023/06/06 07:04:04;;;;;;;5.68;3.47;;;18.60;93.70;;;;;;6297939;28;20048;-76
2023/06/06 07:07:06;;;;;;;6.82;3.47;;;18.60;93.60;;;;;;6327679;28;20048;-78
2023/06/06 07:10:09;;;;;;;6.63;3.58;;;18.70;93.40;;;;;;6324105;28;20040;-78
2023/06/06 07:13:14;;;;;;;6.07;3.40;;;18.70;93.40;;;;;;6319777;28;20051;-78
2023/06/06 07:16:17;;;;;;;6.10;3.35;;;18.80;92.70;;;;;;6312719;28;20048;-78
2023/06/06 07:19:19;;;;;;;4.65;2.97;;;18.90;92.60;;;;;;6329370;28;20044;-74
2023/06/06 07:22:20;;;;;;;6.15;3.20;;;18.90;92.30;;;;;;6350104;28;20043;-72
2023/06/06 07:25:23;;;;;;;5.88;3.00;;;19.00;92.10;;;;;;6351102;28;20112;-72
2023/06/06 07:28:26;;;;;;;6.38;3.00;;;19.00;91.10;;;;;;6350235;28;20050;-71
2023/06/06 07:31:28;;;;;;;5.70;3.22;;;19.10;90.60;;;;;;6336165;28;20065;-72
2023/06/06 07:34:30;;;;;;;5.43;2.90;;;19.20;90.60;;;;;;6303779;28;20049;-71
2023/06/06 07:37:32;;;;;;;6.88;3.17;;;19.20;90.40;;;;;;6306371;28;20048;-76
2023/06/06 07:40:33;;;;;;;5.18;2.60;;;19.40;91.00;;;;;;6328776;28;20048;-74
2023/06/06 07:43:37;;;;;;;5.70;3.13;;;19.50;89.20;;;;;;6327841;28;20043;-73
2023/06/06 07:46:38;;;;;;;9.32;2.83;;;19.60;89.30;;;;;;6330849;28;20043;-74
2023/06/06 07:49:43;;;;;;;6.38;3.25;;;19.70;87.00;;;;;;6320627;28;20052;-77
2023/06/06 07:52:46;;;;;;;5.10;3.00;;;19.70;85.40;;;;;;6340205;28;20043;-73
2023/06/06 07:55:48;;;;;;;7.50;3.25;;;19.80;84.30;;;;;;6363091;28;20048;-73
2023/06/06 07:58:53;;;;;;;5.60;2.85;;;19.90;83.90;;;;;;6326968;28;20505;-73
2023/06/06 08:01:55;;;;;;;6.07;3.20;;;20.00;83.80;;;;;;6327125;28;20052;-73
2023/06/06 08:04:56;;;;;;;5.93;3.20;;;19.90;82.60;;;;;;6330938;28;20058;-72
2023/06/06 08:07:58;;;;;;;6.78;2.97;;;20.00;83.60;;;;;;6350006;28;20055;-72
2023/06/06 08:11:00;;;;;;;6.15;3.05;;;20.10;82.90;;;;;;6325557;28;20055;-72
2023/06/06 08:14:03;;;;;;;6.40;2.95;;;20.10;82.30;;;;;;6322337;28;20136;-73
2023/06/06 08:17:07;;;;;;;4.82;2.95;;;20.10;80.30;;;;;;6334205;28;20052;-74
2023/06/06 08:20:10;;;;;;;6.53;3.03;;;20.30;81.40;;;;;;6324679;28;20040;-75
2023/06/06 08:23:12;;;;;;;6.93;3.22;;;20.40;81.10;;;;;;6319679;28;20055;-74
2023/06/06 08:26:14;;;;;;;6.47;3.08;;;20.40;80.70;;;;;;6325325;28;20059;-75
2023/06/06 08:29:17;;;;;;;5.22;2.97;;;20.30;80.70;;;;;;6318687;28;20052;-75
2023/06/06 08:32:20;;;;;;;5.75;3.15;;;20.40;80.20;;;;;;6321018;28;20062;-75
2023/06/06 08:35:22;;;;;;;5.55;3.00;;;20.20;79.80;;;;;;6304093;28;20048;-74
2023/06/06 08:38:24;;;;;;;6.28;2.97;;;20.40;80.00;;;;;;6308817;28;20048;-74
2023/06/06 08:41:27;;;;;;;5.70;2.95;;;20.50;78.20;;;;;;6326477;28;20070;-74
2023/06/06 08:44:30;;;;;;;6.60;3.17;;;20.50;77.90;;;;;;6298377;28;20044;-73
2023/06/06 08:47:32;;;;;;;;;;;20.50;77.40;;;;;;6311643;28;20400;-74
2023/06/06 08:50:35;;;;;;;5.93;3.00;;;20.60;77.50;;;;;;6327001;28;19935;-74
2023/06/06 08:53:38;;;;;;;7.78;2.70;;;20.60;78.40;;;;;;6322080;28;20477;-74
2023/06/06 08:56:43;;;;;;;5.40;3.35;;;20.70;78.00;;;;;;6322668;28;20044;-72
2023/06/06 08:59:46;;;;;;;5.65;3.10;;;20.80;76.80;;;;;;6317729;28;20500;-71
2023/06/06 09:02:48;;;;;;;5.68;2.90;;;20.80;77.20;;;;;;6317452;28;20055;-73
2023/06/06 09:05:51;;;;;;;7.40;3.55;;;20.90;76.90;;;;;;6303503;28;20043;-75
2023/06/06 09:08:56;;;;;;;5.63;3.37;;;20.90;75.60;;;;;;6320760;28;20052;-76
2023/06/06 09:11:57;;;;;;;6.93;2.97;;;20.90;74.90;;;;;;6332869;28;20062;-76
2023/06/06 09:15:01;;;;;;;7.28;3.28;;;21.00;75.70;;;;;;6332420;28;20048;-76
2023/06/06 09:18:03;;;;;;;6.43;3.38;;;21.00;75.50;;;;;;6324334;28;20044;-75
2023/06/06 09:21:05;;;;;;;6.88;3.40;;;20.90;74.40;;;;;;6324921;28;20043;-74
2023/06/06 09:24:07;;;;;;;5.33;3.33;;;21.00;74.50;;;;;;6324318;28;20055;-75
2023/06/06 09:27:26;;;;;;;8.68;3.30;;;21.00;74.20;;;;;;6326633;28;20059;-76
2023/06/06 09:30:31;;;;;;;4.63;3.08;;;20.90;74.50;;;;;;6323830;28;20047;-74
2023/06/06 09:33:35;;;;;;;7.32;3.33;;;20.90;74.50;;;;;;6324449;28;20059;-76
2023/06/06 09:36:39;;;;;;;;;;;21.10;75.10;;;;;;6324605;28;20051;-76
2023/06/06 09:39:40;;;;;;;8.27;3.58;;;21.20;74.90;;;;;;6323294;28;19935;-76
2023/06/06 09:42:44;;;;;;;6.00;3.42;;;21.20;75.00;;;;;;6324455;28;20048;-76
2023/06/06 09:45:52;;;;;;;7.60;3.47;;;21.20;75.50;;;;;;6324080;28;20477;-76
2023/06/06 09:48:58;;;;;;;6.13;3.53;;;21.20;75.70;;;;;;6324131;28;20051;-77
2023/06/06 09:52:00;;;;;;;8.25;3.55;;;21.30;76.60;;;;;;6323903;28;20052;-77
2023/06/06 09:55:02;;;;;;;6.40;3.40;;;21.40;76.40;;;;;;6323827;28;20044;-78
2023/06/06 09:58:04;;;;;;;6.10;3.53;;;21.60;75.60;;;;;;6324121;28;20055;-75
2023/06/06 10:01:09;;;;;;;6.15;3.53;;;21.30;75.30;;;;;;6323936;28;20048;-75
2023/06/06 10:04:11;;;;;;;7.18;3.50;;;21.40;75.30;;;;;;6324030;28;20048;-77
2023/06/06 10:07:14;;;;;;;5.37;3.47;;;21.50;75.20;;;;;;6323735;28;20044;-75
2023/06/06 10:10:18;;;;;;;5.20;3.33;;;21.50;74.50;;;;;;6323728;28;20093;-77
2023/06/06 10:13:23;;;;;;;7.45;3.30;;;21.60;74.90;;;;;;6323485;28;20051;-76
2023/06/06 10:16:28;;;;;;;6.38;3.42;;;21.70;74.60;;;;;;6325388;28;20048;-76
2023/06/06 10:19:31;;;;;;;7.57;3.60;;;21.80;74.00;;;;;;6327342;28;20048;-75
2023/06/06 10:22:35;;;;;;;6.47;3.60;;;21.80;73.90;;;;;;6325272;28;20048;-76
2023/06/06 10:25:37;;;;;;;6.63;3.50;;;21.90;73.80;;;;;;6324272;28;20104;-76
2023/06/06 10:28:52;;;;;;;6.53;3.40;;;21.80;73.20;;;;;;6323160;28;20599;-76
2023/06/06 10:31:59;;;;;;;5.68;3.15;;;21.90;73.50;;;;;;6323025;28;20052;-75
2023/06/06 10:35:02;;;;;;;5.25;3.15;;;22.00;73.20;;;;;;6323252;28;20093;-75
2023/06/06 10:38:06;;;;;;;5.33;3.37;;;22.10;72.10;;;;;;6323080;28;20051;-77
2023/06/06 10:41:17;;;;;;;7.45;3.85;;;22.10;73.10;;;;;;6323356;28;20506;-77
2023/06/06 10:44:22;;;;;;;5.28;3.33;;;22.10;72.20;;;;;;6322992;28;20048;-76
2023/06/06 10:47:30;;;;;;;5.68;3.45;;;22.20;72.90;;;;;;6323050;28;20040;-76
2023/06/06 10:50:33;;;;;;;6.55;3.25;;;22.30;71.20;;;;;;6322584;28;20044;-78
2023/06/06 10:53:35;;;;;;;;;;;22.30;70.30;;;;;;6323272;28;20048;-77
2023/06/06 10:56:43;;;;;;;5.60;3.10;;;22.30;70.40;;;;;;6322789;28;19927;-77
2023/06/06 10:59:50;;;;;;;5.80;3.20;;;22.40;69.80;;;;;;6321741;28;20040;-76
2023/06/06 11:02:58;;;;;;;7.50;3.67;;;22.50;68.50;;;;;;6322590;28;20074;-76
2023/06/06 11:06:11;;;;;;;7.07;3.55;;;22.50;70.00;;;;;;6323164;28;20055;-76
2023/06/06 11:09:21;;;;;;;;;;;22.70;68.70;;;;;;6325453;28;20040;-76
2023/06/06 11:12:28;;;;;;;5.43;3.00;;;22.70;68.40;;;;;;6322961;28;20022;-76
2023/06/06 11:15:31;;;;;;;7.05;3.22;;;22.90;66.40;;;;;;6322507;28;20478;-76
2023/06/06 11:18:43;;;;;;;5.38;3.38;;;22.90;66.30;;;;;;6322573;28;20060;-77
2023/06/06 11:21:47;;;;;;;6.38;3.30;;;22.80;68.20;;;;;;6322362;28;20052;-77
2023/06/06 11:24:49;;;;;;;9.18;3.60;;;22.70;67.60;;;;;;6322620;28;20504;-77
2023/06/06 11:27:51;;;;;;;7.97;3.70;;;23.00;67.50;;;;;;6322493;28;20063;-78
2023/06/06 11:30:53;;;;;;;7.38;3.80;;;23.20;68.60;;;;;;6322463;28;20478;-76
2023/06/06 11:34:06;;;;;;;6.28;3.47;;;23.30;66.20;;;;;;6322261;28;20052;-76
2023/06/06 11:37:09;;;;;;;5.15;3.20;;;23.30;67.00;;;;;;6322603;28;20056;-76
2023/06/06 11:40:12;;;;;;;5.55;3.30;;;23.40;65.70;;;;;;6322068;28;20512;-76
2023/06/06 11:43:14;;;;;;;5.05;3.13;;;23.20;65.90;;;;;;6322416;28;20494;-76
2023/06/06 11:46:17;;;;;;;6.68;3.50;;;23.20;65.00;;;;;;6322155;28;20055;-77
2023/06/06 11:49:22;;;;;;;7.35;3.60;;;23.10;65.80;;;;;;6322258;28;20052;-77
2023/06/06 11:52:24;;;;;;;5.25;3.22;;;23.20;65.20;;;;;;6322479;28;20101;-77
2023/06/06 11:55:36;;;;;;;6.32;3.50;;;23.30;64.60;;;;;;6321854;28;20133;-76
2023/06/06 11:58:41;;;;;;;7.07;3.53;;;23.30;64.20;;;;;;6322277;28;20044;-77
2023/06/06 12:01:50;;;;;;;6.80;3.78;;;23.40;64.60;;;;;;6297899;28;20372;-77
2023/06/06 12:04:53;;;;;;;6.82;3.33;;;23.50;63.90;;;;;;6300724;28;20052;-76
2023/06/06 12:07:58;;;;;;;;;;;23.50;62.70;;;;;;6301906;28;20040;-75
2023/06/06 12:11:20;;;;;;;6.10;3.60;;;23.60;63.40;;;;;;6301710;28;19920;-76
2023/06/06 12:14:24;;;;;;;6.85;3.67;;;23.70;61.80;;;;;;6322771;28;20618;-72
2023/06/06 12:17:28;;;;;;;5.97;3.42;;;23.60;63.10;;;;;;6302699;28;20383;-73
2023/06/06 12:20:31;;;;;;;5.78;3.47;;;23.80;63.60;;;;;;6304737;28;20047;-73
2023/06/06 12:23:33;;;;;;;;;;;24.00;63.80;;;;;;6328949;28;20046;-72
2023/06/06 12:26:45;;;;;;;7.83;3.27;;;24.00;61.50;;;;;;6325452;28;19920;-72
2023/06/06 12:29:50;;;;;;;6.45;3.22;;;24.20;61.20;;;;;;6325767;28;20302;-71
2023/06/06 12:32:54;;;;;;;5.68;3.22;;;24.40;58.80;;;;;;6325344;28;20185;-72
2023/06/06 12:36:15;;;;;;;7.25;3.42;;;24.60;59.50;;;;;;6323528;28;20044;-72
2023/06/06 12:39:17;;;;;;;7.45;3.63;;;24.40;59.80;;;;;;6331628;28;20048;-71
2023/06/06 12:42:20;;;;;;;6.33;3.30;;;24.40;59.80;;;;;;6350969;28;20054;-74
2023/06/06 12:45:24;;;;;;;5.70;3.35;;;24.30;60.60;;;;;;6328678;28;20348;-72
2023/06/06 12:48:25;;;;;;;7.60;3.38;;;24.20;60.00;;;;;;6325765;28;20062;-72
2023/06/06 12:51:29;;;;;;;5.97;3.05;;;24.10;58.70;;;;;;6325248;28;20048;-71
2023/06/06 12:54:30;;;;;;;;;;;24.00;58.10;;;;;;6325123;28;20051;-72
2023/06/06 12:57:32;;;;;;;7.10;2.97;;;24.00;57.20;;;;;;6329150;28;19919;-70
2023/06/06 13:00:34;;;;;;;5.38;3.20;;;24.40;59.10;;;;;;6350459;28;20051;-74
2023/06/06 13:03:36;;;;;;;6.70;3.42;;;24.70;59.10;;;;;;6343753;28;20458;-73
2023/06/06 13:06:41;;;;;;;6.40;3.58;;;25.00;57.50;;;;;;6324516;28;20078;-72
2023/06/06 13:09:43;;;;;;;6.47;3.10;;;25.10;57.10;;;;;;6324592;28;20225;-70
2023/06/06 13:12:45;;;;;;;7.95;3.33;;;25.10;56.70;;;;;;6324922;28;20409;-75
2023/06/06 13:15:47;;;;;;;5.20;3.00;;;25.10;59.20;;;;;;6298022;28;20663;-74
2023/06/06 13:18:49;;;;;;;7.82;3.72;;;24.90;58.80;;;;;;6297277;28;20137;-74
2023/06/06 13:21:52;;;;;;;6.20;3.38;;;24.60;59.20;;;;;;6307869;28;20500;-74
2023/06/06 13:24:54;;;;;;;;;;;24.60;59.80;;;;;;6348943;28;20044;-73
2023/06/06 13:27:56;;;;;;;6.35;3.42;;;24.90;58.30;;;;;;6349976;28;19926;-74
2023/06/06 13:30:57;;;;;;;7.65;3.63;;;25.20;59.10;;;;;;6350655;28;20059;-77
2023/06/06 13:33:59;;;;;;;7.30;3.40;;;25.50;57.10;;;;;;6351530;28;20513;-73
2023/06/06 13:37:03;;;;;;;5.43;3.30;;;25.60;56.10;;;;;;6337016;28;20463;-75
2023/06/06 13:40:07;;;;;;;6.13;3.33;;;25.50;56.10;;;;;;6339408;28;20051;-73
2023/06/06 13:43:10;;;;;;;7.68;3.55;;;25.50;56.80;;;;;;6339412;28;20047;-72
2023/06/06 13:46:13;;;;;;;6.22;3.67;;;25.60;56.50;;;;;;6346203;28;20205;-70
2023/06/06 13:49:17;;;;;;;;;;;25.80;56.60;;;;;;6329513;28;20056;-72
2023/06/06 13:52:20;;;;;;;6.13;3.22;;;25.70;54.50;;;;;;6309628;28;19974;-72
2023/06/06 13:55:21;;;;;;;;;;;25.40;55.20;;;;;;6331330;28;20044;-72
2023/06/06 13:58:23;;;;;;;7.77;3.40;;;25.20;55.00;;;;;;6320184;28;19931;-71
2023/06/06 14:01:25;;;;;;;6.95;3.08;;;24.90;55.30;;;;;;6328056;28;20854;-71
2023/06/06 14:04:27;;;;;;;4.90;3.42;;;25.20;55.00;;;;;;6324939;28;20129;-72
2023/06/06 14:07:33;;;;;;;6.50;3.10;;;25.60;55.50;;;;;;6330965;28;20794;-72
2023/06/06 14:10:35;;;;;;;4.53;2.72;;;25.70;55.20;;;;;;6333075;28;20039;-71
2023/06/06 14:13:37;;;;;;;6.40;3.22;;;25.80;53.30;;;;;;6320512;28;20121;-71
2023/06/06 14:16:39;;;;;;;5.03;3.08;;;26.00;52.00;;;;;;6319928;28;20062;-71
2023/06/06 14:19:50;;;;;;;6.13;3.10;;;25.80;52.50;;;;;;6319619;28;20048;-70
2023/06/06 14:22:53;;;;;;;4.70;2.92;;;25.90;50.30;;;;;;6320056;28;20511;-72
2023/06/06 14:25:55;;;;;;;;;;;26.00;50.90;;;;;;6319328;28;20048;-71
2023/06/06 14:28:57;;;;;;;5.47;3.00;;;26.10;52.80;;;;;;6319744;28;19924;-71
2023/06/06 14:31:59;;;;;;;6.32;3.08;;;26.20;53.30;;;;;;6294608;28;20056;-71
2023/06/06 14:35:03;;;;;;;8.40;3.20;;;26.20;53.20;;;;;;6294718;28;20057;-72
2023/06/06 14:38:07;;;;;;;5.13;2.75;;;26.40;54.00;;;;;;6303587;28;20062;-70
2023/06/06 14:41:09;;;;;;;10.00;2.92;;;26.80;53.80;;;;;;6315328;28;20067;-72
2023/06/06 14:44:12;;;;;;;6.15;3.00;;;26.70;52.60;;;;;;6294959;28;20056;-72
2023/06/06 14:47:14;;;;;;;4.88;2.80;;;26.90;52.10;;;;;;6305694;28;20125;-72
2023/06/06 14:50:16;;;;;;;8.35;3.42;;;26.90;52.20;;;;;;6322304;28;20072;-71
2023/06/06 14:53:19;;;;;;;7.32;3.33;;;26.90;52.40;;;;;;6319297;28;20052;-71
2023/06/06 14:56:21;;;;;;;7.50;2.70;;;27.00;52.20;;;;;;6319482;28;20078;-71
2023/06/06 14:59:24;;;;;;;7.57;2.90;;;26.90;52.00;;;;;;6318792;28;20040;-71
2023/06/06 15:02:25;;;;;;;;;;;27.00;52.00;;;;;;6319076;28;20048;-71
2023/06/06 15:05:28;;;;;;;5.00;3.00;;;27.20;51.70;;;;;;6334918;28;19924;-71
2023/06/06 15:08:31;;;;;;;6.88;2.92;;;27.10;51.70;;;;;;6343482;28;20305;-72
2023/06/06 15:11:33;;;;;;;5.03;2.72;;;27.10;51.40;;;;;;6316108;28;20473;-72
2023/06/06 15:14:35;;;;;;;5.40;2.92;;;27.20;51.70;;;;;;6313799;28;20055;-73
2023/06/06 15:17:37;;;;;;;5.53;2.92;;;27.50;52.00;;;;;;6319459;28;20055;-78
2023/06/06 15:20:39;;;;;;;7.47;3.30;;;27.40;50.10;;;;;;6319133;28;20055;-71
2023/06/06 15:23:43;;;;;;;4.80;2.40;;;27.30;50.80;;;;;;6318356;28;20047;-74
2023/06/06 15:26:45;;;;;;;4.80;2.50;;;26.80;51.30;;;;;;6318610;28;20051;-74
2023/06/06 15:29:48;;;;;;;7.68;3.13;;;26.60;51.00;;;;;;6330387;28;20051;-75
2023/06/06 15:32:50;;;;;;;;;;;26.40;51.90;;;;;;6318908;28;20052;-73
2023/06/06 15:35:52;;;;;;;4.60;2.53;;;26.50;51.60;;;;;;6316097;28;20010;-74
2023/06/06 15:38:56;;;;;;;4.60;2.53;;;26.60;51.10;;;;;;6319147;28;20070;-74
2023/06/06 15:41:58;;;;;;;4.95;2.58;;;26.90;51.70;;;;;;6326821;28;20048;-74
2023/06/06 15:45:00;;;;;;;5.55;3.08;;;27.20;51.70;;;;;;6323226;28;20498;-74
2023/06/06 15:48:02;;;;;;;5.78;2.88;;;27.40;51.60;;;;;;6323743;28;20047;-74
2023/06/06 15:51:05;;;;;;;5.30;2.70;;;27.40;50.40;;;;;;6324312;28;20055;-73
2023/06/06 15:54:08;;;;;;;4.63;2.80;;;27.40;50.70;;;;;;6325596;28;20534;-73
2023/06/06 15:57:10;;;;;;;6.05;2.88;;;27.10;49.40;;;;;;6323284;28;20052;-74
2023/06/06 16:00:14;;;;;;;5.75;2.90;;;27.10;48.80;;;;;;6320270;28;20080;-73